createdAt,value
2023-04-26T04:55:14.373Z,2.83
2023-04-26T05:00:18.813Z,2.88
2023-04-26T05:05:22.154Z,2.60
2023-04-26T05:10:27.184Z,3.28
2023-04-26T05:15:31.050Z,2.22
2023-04-26T05:20:34.706Z,3.03
2023-04-26T05:25:40.393Z,3.00
2023-04-26T05:30:44.527Z,2.30
2023-04-26T05:35:47.987Z,2.38
2023-04-26T05:40:52.757Z,2.45
2023-04-26T05:45:58.172Z,2.30
2023-04-26T05:51:01.698Z,2.17
2023-04-26T05:56:07.440Z,2.65
2023-04-26T06:01:12.391Z,2.70
2023-04-26T06:06:16.469Z,2.47
2023-04-26T06:11:21.520Z,2.20
2023-04-26T06:16:25.283Z,2.55
2023-04-26T06:21:28.807Z,2.70
2023-04-26T06:26:33.646Z,2.15
2023-04-26T06:31:37.299Z,2.55
2023-04-26T06:36:41.371Z,2.80
2023-04-26T06:41:46.631Z,2.10
2023-04-26T06:46:50.602Z,1.92
2023-04-26T06:51:54.412Z,2.97
2023-04-26T06:57:01.225Z,2.22
2023-04-26T07:02:05.392Z,2.03
2023-04-26T07:07:10.463Z,1.90
2023-04-26T07:12:16.560Z,1.85
2023-04-26T07:17:21.380Z,1.88
2023-04-26T07:22:25.350Z,2.40
2023-04-26T07:27:32.044Z,1.80
2023-04-26T07:32:36.506Z,1.98
2023-04-26T07:37:40.404Z,2.00
2023-04-26T07:42:45.342Z,1.50
2023-04-26T07:47:48.888Z,2.75
2023-04-26T07:52:52.642Z,1.40
2023-04-26T07:57:57.710Z,1.60
2023-04-26T08:03:03.592Z,2.58
2023-04-26T08:08:07.383Z,1.23
2023-04-26T08:13:12.178Z,1.83
2023-04-26T08:18:15.612Z,1.10
2023-04-26T08:23:19.657Z,1.52
2023-04-26T08:28:24.438Z,1.40
2023-04-26T08:33:27.897Z,2.55
2023-04-26T08:38:32.360Z,1.02
2023-04-26T08:43:38.753Z,2.08
2023-04-26T08:48:42.215Z,1.40
2023-04-26T08:53:46.534Z,1.00
2023-04-26T08:58:52.053Z,1.40
2023-04-26T09:03:57.252Z,1.08
2023-04-26T09:09:04.945Z,0.98
2023-04-26T09:14:09.795Z,2.13
2023-04-26T09:19:13.248Z,1.08
2023-04-26T09:24:17.156Z,1.35
2023-04-26T09:29:22.083Z,1.90
2023-04-26T09:34:25.521Z,0.90
2023-04-26T09:39:33.896Z,1.17
2023-04-26T09:44:39.258Z,1.20
2023-04-26T09:49:48.819Z,1.00
2023-04-26T09:54:54.584Z,1.30
2023-04-26T10:00:00.927Z,1.10
2023-04-26T10:05:07.245Z,1.15
2023-04-26T10:10:12.877Z,1.20
2023-04-26T10:15:19.249Z,1.30
2023-04-26T10:20:24.352Z,1.20
2023-04-26T10:25:36.627Z,1.48
2023-04-26T10:30:56.644Z,1.33
2023-04-26T10:36:09.957Z,1.20
2023-04-26T10:41:33.207Z,1.33
2023-04-26T10:46:40.594Z,1.02
2023-04-26T10:52:12.626Z,1.35
2023-04-26T10:57:16.982Z,1.27
2023-04-26T11:02:58.248Z,1.00
2023-04-26T11:08:09.452Z,1.20
2023-04-26T11:13:13.530Z,0.80
2023-04-26T11:18:21.077Z,0.95
2023-04-26T11:23:25.520Z,1.10
2023-04-26T11:28:29.053Z,1.00
2023-04-26T11:33:34.254Z,0.90
2023-04-26T11:38:39.439Z,1.15
2023-04-26T11:43:43.135Z,1.55
2023-04-26T11:48:48.557Z,0.73
2023-04-26T11:53:52.800Z,0.85
2023-04-26T11:58:58.430Z,0.90
2023-04-26T12:04:03.402Z,1.30
2023-04-26T12:09:08.261Z,1.20
2023-04-26T12:14:11.958Z,1.88
2023-04-26T12:19:17.279Z,1.05
2023-04-26T12:24:24.838Z,1.20
2023-04-26T12:29:30.606Z,0.90
2023-04-26T12:34:35.827Z,1.00
2023-04-26T12:39:39.230Z,1.08
2023-04-26T12:44:42.695Z,1.20
2023-04-26T12:49:48.122Z,1.30
2023-04-26T12:54:51.906Z,0.90
2023-04-26T12:59:57.185Z,1.08
2023-04-26T13:05:04.780Z,1.65
2023-04-26T13:10:12.842Z,1.38
2023-04-26T13:15:17.798Z,0.80
2023-04-26T13:20:25.489Z,1.15
2023-04-26T13:25:29.691Z,1.38
2023-04-26T13:30:33.163Z,1.40
2023-04-26T13:35:38.197Z,1.48
2023-04-26T13:40:41.857Z,1.17
2023-04-26T13:45:45.247Z,1.20
2023-04-26T13:50:50.016Z,1.13
2023-04-26T13:55:53.515Z,1.00
2023-04-26T14:00:58.544Z,1.15
2023-04-26T14:06:03.937Z,0.90
2023-04-26T14:11:07.966Z,1.10
2023-04-26T14:16:11.727Z,0.80
2023-04-26T14:21:16.870Z,0.95
2023-04-26T14:26:20.491Z,1.10
2023-04-26T14:31:26.084Z,0.90
2023-04-26T14:36:32.137Z,0.90
2023-04-26T14:41:35.506Z,0.93
2023-04-26T14:46:42.455Z,1.20
2023-04-26T14:51:48.027Z,1.30
2023-04-26T14:56:51.943Z,0.95
2023-04-26T15:01:55.710Z,1.10
2023-04-26T15:07:00.888Z,0.93
2023-04-26T15:12:04.999Z,1.20
2023-04-26T15:17:08.672Z,1.45
2023-04-26T15:22:13.507Z,1.33
2023-04-26T15:27:17.544Z,1.17
2023-04-26T15:32:20.979Z,0.88
2023-04-26T15:37:25.754Z,1.20
2023-04-26T15:42:29.180Z,1.42
2023-04-26T15:47:32.685Z,0.85
2023-04-26T15:52:39.419Z,1.30
2023-04-26T15:57:43.539Z,0.93
2023-04-26T16:02:47.333Z,1.27
2023-04-26T16:07:52.286Z,1.20
2023-04-26T16:12:55.694Z,1.55
2023-04-26T16:17:59.179Z,1.67
2023-04-26T16:23:04.053Z,1.73
2023-04-26T16:28:10.023Z,1.88
2023-04-26T16:33:14.390Z,2.00
2023-04-26T16:38:19.566Z,1.98
2023-04-26T16:43:23.011Z,1.60
2023-04-26T16:48:26.545Z,1.23
2023-04-26T16:53:31.868Z,1.58
2023-04-26T16:58:35.536Z,1.42
2023-04-26T17:03:39.455Z,1.50
2023-04-26T17:08:44.931Z,1.83
2023-04-26T17:13:48.647Z,1.48
2023-04-26T17:18:52.580Z,1.73
2023-04-26T17:23:57.594Z,1.73
2023-04-26T17:29:01.081Z,2.08
2023-04-26T17:34:05.133Z,2.42
2023-04-26T17:39:10.346Z,1.70
2023-04-26T17:44:13.869Z,1.75
2023-04-26T17:49:17.580Z,1.95
2023-04-26T17:54:22.658Z,2.30
2023-04-26T17:59:26.054Z,2.17
2023-04-26T18:04:30.677Z,2.03
2023-04-26T18:09:35.628Z,2.05
2023-04-26T18:14:44.697Z,2.50
2023-04-26T18:19:48.429Z,2.47
2023-04-26T18:24:53.269Z,2.90
2023-04-26T18:29:56.668Z,2.25
2023-04-26T18:35:00.757Z,2.47
2023-04-26T18:40:06.391Z,2.80
2023-04-26T18:45:10.935Z,2.90
2023-04-26T18:50:14.803Z,2.78
2023-04-26T18:55:19.892Z,3.63
2023-04-26T19:00:23.766Z,3.75
2023-04-26T19:05:27.459Z,4.20
2023-04-26T19:10:32.948Z,6.85
2023-04-26T19:15:36.594Z,5.47
2023-04-26T19:20:40.741Z,4.35
2023-04-26T19:25:46.060Z,4.45
2023-04-26T19:30:49.518Z,4.70
2023-04-26T19:35:53.148Z,4.63
2023-04-26T19:40:58.191Z,4.32
2023-04-26T19:46:01.675Z,4.20
2023-04-26T19:51:05.377Z,5.63
2023-04-26T19:56:12.046Z,5.38
2023-04-26T20:01:15.978Z,6.72
2023-04-26T20:06:19.831Z,5.85
2023-04-26T20:11:24.683Z,5.13
2023-04-26T20:16:28.669Z,5.13
2023-04-26T20:21:32.583Z,4.97
2023-04-26T20:26:37.403Z,3.92
2023-04-26T20:31:41.159Z,5.32
2023-04-26T20:36:44.898Z,4.47
2023-04-26T20:41:49.705Z,4.22
2023-04-26T20:46:53.209Z,4.05
2023-04-26T20:51:56.951Z,4.40
2023-04-26T20:57:04.168Z,4.70
2023-04-26T21:02:08.914Z,5.88
2023-04-26T21:07:13.049Z,5.85
2023-04-26T21:12:18.109Z,6.60
2023-04-26T21:17:21.880Z,6.88
2023-04-26T21:22:25.618Z,5.70
2023-04-26T21:27:31.701Z,5.13
2023-04-26T21:32:35.150Z,5.28
2023-04-26T21:37:38.693Z,6.10
2023-04-26T21:42:46.661Z,4.90
2023-04-26T21:47:55.252Z,6.13
2023-04-26T21:52:58.675Z,6.35
2023-04-26T21:58:03.422Z,7.00
2023-04-26T22:03:07.094Z,6.05
2023-04-26T22:08:10.738Z,7.60
2023-04-26T22:13:15.634Z,7.60
2023-04-26T22:18:19.337Z,7.35
2023-04-26T22:23:22.761Z,6.63
2023-04-26T22:28:28.069Z,7.50
